Time;durP1;ratioP1;P1;durP2;ratioP2;P2;SDS_P1;SDS_P2;PMS_P1;PMS_P2;Temp;Humidity;BMP_temperature;BMP_pressure;BME280_temperature;BME280_humidity;BME280_pressure;Samples;Min_cycle;Max_cycle;Signal;HPM_P1;HPM_P2
2021/10/26 00:01:16;;;;;;;8.55;2.45;;;9.30;99.90;;;;;;5081537;28;20050;-59
2021/10/26 00:03:43;;;;;;;5.78;2.20;;;9.30;99.90;;;;;;5080427;28;20138;-59
2021/10/26 00:06:10;;;;;;;4.85;2.15;;;9.30;99.90;;;;;;5081267;28;20044;-59
2021/10/26 00:08:36;;;;;;;7.75;2.00;;;9.30;99.90;;;;;;5082418;28;20075;-59
2021/10/26 00:11:05;;;;;;;4.80;1.90;;;9.30;99.90;;;;;;5085074;28;20052;-59
2021/10/26 00:13:34;;;;;;;15.80;2.28;;;9.20;99.90;;;;;;5083884;28;20047;-60
2021/10/26 00:16:03;;;;;;;5.78;2.20;;;9.20;99.90;;;;;;5084880;28;20048;-59
2021/10/26 00:18:30;;;;;;;8.75;2.58;;;9.10;99.90;;;;;;5066162;28;20056;-59
2021/10/26 00:20:57;;;;;;;6.60;2.10;;;9.10;99.90;;;;;;5084960;28;20719;-59
2021/10/26 00:23:23;;;;;;;6.80;2.25;;;9.10;99.90;;;;;;5084658;28;20143;-59
2021/10/26 00:25:50;;;;;;;9.10;2.47;;;9.10;99.90;;;;;;5085387;28;20126;-58
2021/10/26 00:28:17;;;;;;;8.07;2.58;;;9.10;99.90;;;;;;5083448;28;20421;-58
2021/10/26 00:30:46;;;;;;;8.05;2.17;;;9.20;99.90;;;;;;5084917;28;20051;-59
2021/10/26 00:33:13;;;;;;;6.10;2.17;;;9.10;99.90;;;;;;5084089;28;20553;-58
2021/10/26 00:35:40;;;;;;;7.53;2.00;;;9.10;99.90;;;;;;5084371;28;20468;-59
2021/10/26 00:38:06;;;;;;;4.80;1.95;;;9.20;99.90;;;;;;5084538;28;20075;-59
2021/10/26 00:40:35;;;;;;;8.70;2.25;;;9.20;99.90;;;;;;5083452;28;20079;-59
2021/10/26 00:43:02;;;;;;;6.53;2.20;;;9.20;99.90;;;;;;5084479;28;20079;-59
2021/10/26 00:45:29;;;;;;;6.97;2.47;;;9.20;99.90;;;;;;5084236;28;20072;-59
2021/10/26 00:47:56;;;;;;;6.03;2.03;;;9.20;99.90;;;;;;5083123;28;20079;-59
2021/10/26 00:50:23;;;;;;;14.10;2.72;;;9.20;99.90;;;;;;5084017;28;20142;-59
2021/10/26 00:52:49;;;;;;;5.00;2.53;;;9.20;99.90;;;;;;5085003;28;20044;-59
2021/10/26 00:55:17;;;;;;;6.60;2.70;;;9.20;99.90;;;;;;5084968;28;20135;-61
2021/10/26 00:57:44;;;;;;;4.68;2.53;;;9.20;99.90;;;;;;5083939;28;20051;-59
2021/10/26 01:00:14;;;;;;;5.95;2.20;;;9.30;99.90;;;;;;5079113;28;20657;-59
2021/10/26 01:02:42;;;;;;;7.15;2.33;;;9.30;99.90;;;;;;5082693;28;20131;-61
2021/10/26 01:05:09;;;;;;;6.53;2.30;;;9.30;99.90;;;;;;5084967;28;20056;-59
2021/10/26 01:07:36;;;;;;;10.05;2.70;;;9.40;99.90;;;;;;5084794;28;20573;-59
2021/10/26 01:10:04;;;;;;;10.43;3.08;;;9.40;99.90;;;;;;5083487;28;20052;-59
2021/10/26 01:12:31;;;;;;;10.02;3.05;;;9.40;99.90;;;;;;5083650;28;20681;-59
2021/10/26 01:15:00;;;;;;;10.05;3.30;;;9.50;99.90;;;;;;5082739;28;20436;-59
2021/10/26 01:17:27;;;;;;;10.10;3.30;;;9.50;99.90;;;;;;5075771;28;20082;-60
2021/10/26 01:19:55;;;;;;;8.43;3.00;;;9.60;99.90;;;;;;5084629;28;20136;-59
2021/10/26 01:22:26;;;;;;;10.57;4.10;;;9.60;99.90;;;;;;5084040;28;20118;-59
2021/10/26 01:24:53;;;;;;;11.23;3.10;;;9.60;99.90;;;;;;5084530;28;20110;-59
2021/10/26 01:27:20;;;;;;;12.80;4.45;;;9.70;99.90;;;;;;5084839;28;20135;-60
2021/10/26 01:29:50;;;;;;;16.02;5.68;;;9.70;99.90;;;;;;5083353;28;20510;-59
2021/10/26 01:32:17;;;;;;;16.70;6.60;;;9.70;99.90;;;;;;5083684;28;20134;-59
2021/10/26 01:34:44;;;;;;;19.75;5.28;;;9.80;99.90;;;;;;5086341;28;20052;-59
2021/10/26 01:37:11;;;;;;;17.85;5.63;;;9.80;99.90;;;;;;5085995;28;20167;-59
2021/10/26 01:39:38;;;;;;;15.55;4.50;;;9.80;99.90;;;;;;5086539;28;20435;-58
2021/10/26 01:42:06;;;;;;;12.77;4.32;;;9.80;99.90;;;;;;5085243;28;20151;-59
2021/10/26 01:44:32;;;;;;;9.82;4.35;;;9.80;99.90;;;;;;5085682;28;20071;-59
2021/10/26 01:46:59;;;;;;;7.15;2.63;;;9.80;99.90;;;;;;5085860;28;20080;-59
2021/10/26 01:49:28;;;;;;;10.10;3.10;;;9.80;99.90;;;;;;5084681;28;20052;-58
2021/10/26 01:51:55;;;;;;;9.68;3.35;;;9.80;99.90;;;;;;5084755;28;20052;-59
2021/10/26 01:54:22;;;;;;;8.02;3.03;;;9.80;99.90;;;;;;5085263;28;20519;-58
2021/10/26 01:56:50;;;;;;;6.38;2.47;;;9.80;99.90;;;;;;5084289;28;20079;-58
2021/10/26 01:59:16;;;;;;;13.52;3.03;;;9.80;99.90;;;;;;5082443;28;20430;-58
2021/10/26 02:01:43;;;;;;;10.20;2.67;;;9.70;99.90;;;;;;5085559;28;20101;-58
2021/10/26 02:04:10;;;;;;;7.68;2.20;;;9.70;99.90;;;;;;5064012;28;20056;-58
2021/10/26 02:06:37;;;;;;;6.35;2.30;;;9.70;99.90;;;;;;5076815;28;20048;-58
2021/10/26 02:09:04;;;;;;;7.65;2.55;;;9.70;99.90;;;;;;5085558;28;20047;-58
2021/10/26 02:11:33;;;;;;;11.95;3.03;;;9.60;99.90;;;;;;5074938;28;20163;-58
2021/10/26 02:14:03;;;;;;;7.45;2.13;;;9.60;99.90;;;;;;5084153;28;20558;-58
2021/10/26 02:16:29;;;;;;;6.05;2.30;;;9.60;99.90;;;;;;5080814;28;20161;-57
2021/10/26 02:18:56;;;;;;;8.70;2.70;;;9.60;99.90;;;;;;5084537;28;20040;-59
2021/10/26 02:21:23;;;;;;;6.20;1.92;;;9.70;99.90;;;;;;5084189;28;20101;-58
2021/10/26 02:23:50;;;;;;;8.45;2.53;;;9.70;99.90;;;;;;5085058;28;20531;-59
2021/10/26 02:26:17;;;;;;;8.07;2.13;;;9.70;99.90;;;;;;5085212;28;20071;-62
2021/10/26 02:28:46;;;;;;;10.18;2.65;;;9.70;99.90;;;;;;5084673;28;20144;-58
2021/10/26 02:31:13;;;;;;;6.22;1.92;;;9.70;99.90;;;;;;5084008;28;20492;-59
2021/10/26 02:33:42;;;;;;;7.43;2.00;;;9.80;99.90;;;;;;5084135;28;20061;-58
2021/10/26 02:36:09;;;;;;;7.50;1.42;;;9.90;99.90;;;;;;5085022;28;20048;-58
2021/10/26 02:38:36;;;;;;;9.13;2.47;;;9.90;99.90;;;;;;5084480;28;20064;-64
2021/10/26 02:41:03;;;;;;;4.50;1.88;;;9.90;99.90;;;;;;5079915;28;20067;-58
2021/10/26 02:43:30;;;;;;;7.65;3.05;;;10.00;99.90;;;;;;5083221;28;20143;-59
2021/10/26 02:46:00;;;;;;;11.15;2.45;;;10.00;99.90;;;;;;5083543;28;20063;-59
2021/10/26 02:48:30;;;;;;;8.50;3.47;;;10.10;99.90;;;;;;5083999;28;20130;-59
2021/10/26 02:50:57;;;;;;;6.70;2.35;;;10.20;99.90;;;;;;5084175;28;20151;-59
2021/10/26 02:53:25;;;;;;;8.35;2.40;;;10.40;99.90;;;;;;5084418;28;20439;-59
2021/10/26 02:55:52;;;;;;;7.10;2.13;;;10.50;99.90;;;;;;5084539;28;20147;-59
2021/10/26 02:58:19;;;;;;;6.00;2.28;;;10.60;99.90;;;;;;5083421;28;20072;-59
2021/10/26 03:00:46;;;;;;;10.73;1.83;;;10.70;99.90;;;;;;5083442;28;20129;-59
2021/10/26 03:03:14;;;;;;;10.32;2.33;;;10.70;99.90;;;;;;5084529;28;20238;-59
2021/10/26 03:05:41;;;;;;;8.43;1.92;;;10.80;99.90;;;;;;5085976;28;20075;-60
2021/10/26 03:08:07;;;;;;;12.45;3.30;;;10.80;99.90;;;;;;5085024;28;20123;-59
2021/10/26 03:10:34;;;;;;;9.05;1.92;;;10.90;99.90;;;;;;5087074;28;20079;-59
2021/10/26 03:13:01;;;;;;;5.25;1.73;;;11.00;99.90;;;;;;5086462;28;20600;-59
2021/10/26 03:15:30;;;;;;;7.10;1.75;;;11.00;99.90;;;;;;5084886;28;20075;-58
2021/10/26 03:17:57;;;;;;;6.13;1.92;;;11.00;99.90;;;;;;5085760;28;20436;-58
2021/10/26 03:20:24;;;;;;;10.63;1.90;;;11.10;99.90;;;;;;5085531;28;20048;-59
2021/10/26 03:22:51;;;;;;;5.18;1.92;;;11.10;99.90;;;;;;5086413;28;20086;-59
2021/10/26 03:25:18;;;;;;;5.50;2.10;;;11.10;99.90;;;;;;5086133;28;20454;-59
2021/10/26 03:27:44;;;;;;;5.20;2.08;;;11.10;99.90;;;;;;5086128;28;20123;-59
2021/10/26 03:30:13;;;;;;;6.53;2.03;;;11.10;99.90;;;;;;5084267;28;20071;-58
2021/10/26 03:32:40;;;;;;;7.70;2.45;;;11.10;99.90;;;;;;5086011;28;20079;-60
2021/10/26 03:35:07;;;;;;;4.15;1.80;;;11.10;99.90;;;;;;5086361;28;20105;-59
2021/10/26 03:37:36;;;;;;;6.35;1.38;;;11.10;99.90;;;;;;5086183;28;20467;-59
2021/10/26 03:40:06;;;;;;;8.50;2.15;;;11.10;99.90;;;;;;5085122;28;20596;-60
2021/10/26 03:42:35;;;;;;;5.25;1.60;;;11.10;99.90;;;;;;5085910;28;20523;-59
2021/10/26 03:45:02;;;;;;;7.45;2.03;;;11.10;99.90;;;;;;5083965;28;20158;-59
2021/10/26 03:47:32;;;;;;;4.55;1.38;;;11.20;99.90;;;;;;5085326;28;20080;-59
2021/10/26 03:49:59;;;;;;;5.97;1.98;;;11.20;99.90;;;;;;5085162;28;20044;-59
2021/10/26 03:52:25;;;;;;;6.93;2.42;;;11.20;99.90;;;;;;5086023;28;20090;-59
2021/10/26 03:54:55;;;;;;;5.80;1.52;;;11.20;99.90;;;;;;5084158;28;20060;-59
2021/10/26 03:57:24;;;;;;;7.07;1.98;;;11.20;99.90;;;;;;5085934;28;20086;-59
2021/10/26 03:59:51;;;;;;;8.02;1.92;;;11.30;99.90;;;;;;5085219;28;20076;-59
2021/10/26 04:02:24;;;;;;;9.82;3.00;;;11.30;99.90;;;;;;5083795;28;20135;-59
2021/10/26 04:04:52;;;;;;;8.38;2.75;;;11.30;99.90;;;;;;5085898;28;20056;-59
2021/10/26 04:07:21;;;;;;;9.75;2.33;;;11.40;99.90;;;;;;5085892;28;20071;-58
2021/10/26 04:09:59;;;;;;;6.63;1.90;;;11.40;99.90;;;;;;5084737;28;20088;-59
2021/10/26 04:12:25;;;;;;;6.32;2.15;;;11.40;99.90;;;;;;5086103;28;20455;-58
2021/10/26 04:14:56;;;;;;;6.15;1.88;;;11.40;99.90;;;;;;5085295;28;20047;-59
2021/10/26 04:17:25;;;;;;;6.93;2.50;;;11.40;99.90;;;;;;5085080;28;20108;-59
2021/10/26 04:19:54;;;;;;;6.78;2.38;;;11.50;99.90;;;;;;5085775;28;20048;-59
2021/10/26 04:22:21;;;;;;;4.00;1.58;;;11.50;99.90;;;;;;5086050;28;20086;-59
2021/10/26 04:24:49;;;;;;;6.68;1.70;;;11.50;99.90;;;;;;5085778;28;20082;-60
2021/10/26 04:27:16;;;;;;;8.02;2.13;;;11.50;99.90;;;;;;5085989;28;20048;-59
2021/10/26 04:29:43;;;;;;;5.80;1.95;;;11.50;99.90;;;;;;5084970;28;20676;-59
2021/10/26 04:32:10;;;;;;;6.40;1.92;;;11.40;99.90;;;;;;5084980;28;20048;-59
2021/10/26 04:34:37;;;;;;;8.20;2.53;;;11.40;99.90;;;;;;5085613;28;20135;-59
2021/10/26 04:37:08;;;;;;;8.55;2.35;;;11.40;99.90;;;;;;5085256;28;20074;-59
2021/10/26 04:39:42;;;;;;;4.72;1.50;;;11.40;99.90;;;;;;5089676;28;20055;-59
2021/10/26 04:42:09;;;;;;;5.00;1.92;;;11.50;99.90;;;;;;5090006;28;20406;-59
2021/10/26 04:44:37;;;;;;;6.82;2.47;;;11.50;99.90;;;;;;5071013;28;20043;-59
2021/10/26 04:47:03;;;;;;;6.95;1.98;;;11.50;99.90;;;;;;5088544;28;20626;-58
2021/10/26 04:49:30;;;;;;;6.30;1.85;;;11.50;99.90;;;;;;5081534;28;20580;-59
2021/10/26 04:51:57;;;;;;;5.32;1.73;;;11.50;99.90;;;;;;5067497;28;20044;-59
2021/10/26 04:54:24;;;;;;;5.97;2.10;;;11.50;99.90;;;;;;5067212;28;20072;-58
2021/10/26 04:56:53;;;;;;;7.15;2.53;;;11.50;99.90;;;;;;5069492;28;20491;-59
2021/10/26 04:59:20;;;;;;;8.90;2.53;;;11.50;99.90;;;;;;5086181;28;20082;-59
2021/10/26 05:01:46;;;;;;;3.95;1.90;;;11.50;99.90;;;;;;5085416;28;20131;-59
2021/10/26 05:04:13;;;;;;;8.57;1.83;;;11.50;99.90;;;;;;5067530;28;20555;-59
2021/10/26 05:06:40;;;;;;;8.85;2.92;;;11.50;99.90;;;;;;5066312;28;20131;-59
2021/10/26 05:09:07;;;;;;;3.33;1.92;;;11.50;99.90;;;;;;5084972;28;20139;-59
2021/10/26 05:11:34;;;;;;;7.18;2.03;;;11.50;99.90;;;;;;5085053;28;20090;-59
2021/10/26 05:14:03;;;;;;;4.60;2.08;;;11.50;99.90;;;;;;5081512;28;20086;-59
2021/10/26 05:16:30;;;;;;;3.63;1.80;;;11.50;99.90;;;;;;5082604;28;20275;-59
2021/10/26 05:19:00;;;;;;;5.85;2.08;;;11.40;99.90;;;;;;5080785;28;20055;-59
2021/10/26 05:21:27;;;;;;;4.22;1.90;;;11.40;99.90;;;;;;5082472;28;20044;-59
2021/10/26 05:23:54;;;;;;;4.28;2.30;;;11.40;99.90;;;;;;5081224;28;20048;-59
2021/10/26 05:26:21;;;;;;;4.85;1.67;;;11.40;99.90;;;;;;5082189;28;20603;-59
2021/10/26 05:28:50;;;;;;;4.82;2.10;;;11.40;99.90;;;;;;5083559;28;20074;-59
2021/10/26 05:31:17;;;;;;;7.63;2.00;;;11.40;99.90;;;;;;5083417;28;20143;-59
2021/10/26 05:33:45;;;;;;;8.07;2.30;;;11.40;99.90;;;;;;5084169;28;20052;-59
2021/10/26 05:36:12;;;;;;;4.25;2.00;;;11.30;99.90;;;;;;5084955;28;20036;-59
2021/10/26 05:38:39;;;;;;;5.68;2.20;;;11.30;99.90;;;;;;5085492;28;20167;-58
2021/10/26 05:41:07;;;;;;;8.52;2.28;;;11.30;99.90;;;;;;5084765;28;20063;-59
2021/10/26 05:43:34;;;;;;;5.32;2.90;;;11.30;99.90;;;;;;5082015;28;20921;-59
2021/10/26 05:46:00;;;;;;;4.35;2.10;;;11.20;99.90;;;;;;5085425;28;20370;-60
2021/10/26 05:48:28;;;;;;;6.55;2.15;;;11.20;99.90;;;;;;5082997;28;20755;-59
2021/10/26 05:50:56;;;;;;;4.72;3.30;;;11.20;99.90;;;;;;5082897;28;20072;-59
2021/10/26 05:53:23;;;;;;;5.90;2.80;;;11.10;99.90;;;;;;5079957;28;20048;-59
2021/10/26 05:55:50;;;;;;;6.82;2.60;;;11.10;99.90;;;;;;5083817;28;20067;-59
2021/10/26 05:58:19;;;;;;;4.55;2.40;;;11.00;99.90;;;;;;5081935;28;20048;-59
2021/10/26 06:00:46;;;;;;;5.70;2.90;;;11.00;99.90;;;;;;5084223;28;20074;-58
2021/10/26 06:03:13;;;;;;;5.80;2.40;;;10.90;99.90;;;;;;5079040;28;20176;-58
2021/10/26 06:05:40;;;;;;;4.65;2.30;;;10.90;99.90;;;;;;5082445;28;20487;-58
2021/10/26 06:08:07;;;;;;;6.07;2.40;;;10.80;99.90;;;;;;5080765;28;20072;-58
2021/10/26 06:10:40;;;;;;;3.95;2.20;;;10.80;99.90;;;;;;5078546;28;20544;-59
2021/10/26 06:13:10;;;;;;;5.65;1.48;;;10.80;99.90;;;;;;5080962;28;20102;-59
2021/10/26 06:15:38;;;;;;;3.15;1.48;;;10.70;99.90;;;;;;5082056;28;20135;-58
2021/10/26 06:18:06;;;;;;;2.70;1.35;;;10.70;99.90;;;;;;5082983;28;20048;-58
2021/10/26 06:20:33;;;;;;;5.88;1.50;;;10.70;99.90;;;;;;5082132;28;20084;-59
2021/10/26 06:23:00;;;;;;;4.97;1.30;;;10.70;99.90;;;;;;5083664;28;20075;-59
2021/10/26 06:25:27;;;;;;;2.63;1.00;;;10.70;99.90;;;;;;5082204;28;20048;-59
2021/10/26 06:27:54;;;;;;;2.65;1.00;;;10.70;99.90;;;;;;5082998;28;20516;-59
2021/10/26 06:30:21;;;;;;;3.20;1.20;;;10.70;99.90;;;;;;5081920;28;20506;-59
2021/10/26 06:32:48;;;;;;;2.20;1.10;;;10.70;99.90;;;;;;5082353;28;20075;-58
2021/10/26 06:35:14;;;;;;;2.67;1.25;;;10.70;99.90;;;;;;5083086;28;20083;-59
2021/10/26 06:37:43;;;;;;;5.45;1.20;;;10.70;99.90;;;;;;5083403;28;20479;-59
2021/10/26 06:40:12;;;;;;;2.50;1.30;;;10.70;99.90;;;;;;5082593;28;20377;-59
2021/10/26 06:42:41;;;;;;;2.83;1.35;;;10.70;99.90;;;;;;5083747;28;20044;-59
2021/10/26 06:45:09;;;;;;;3.75;1.40;;;10.70;99.90;;;;;;5084809;28;20131;-58
2021/10/26 06:47:35;;;;;;;3.15;1.10;;;10.70;99.90;;;;;;5084923;28;20504;-59
2021/10/26 06:50:06;;;;;;;4.15;1.17;;;10.70;99.90;;;;;;5085529;28;20135;-59
2021/10/26 06:52:32;;;;;;;2.78;1.25;;;10.60;99.90;;;;;;5081800;28;20075;-59
2021/10/26 06:55:00;;;;;;;4.25;1.73;;;10.60;99.90;;;;;;5083575;28;20131;-59
2021/10/26 06:57:29;;;;;;;7.18;2.30;;;10.60;99.90;;;;;;5083451;28;20078;-59
2021/10/26 06:59:55;;;;;;;3.88;1.75;;;10.60;99.90;;;;;;5081657;28;20060;-59
2021/10/26 07:02:22;;;;;;;6.07;2.20;;;10.60;99.90;;;;;;5080291;28;20140;-59
2021/10/26 07:04:58;;;;;;;3.53;1.92;;;10.50;99.90;;;;;;5082238;28;20072;-59
2021/10/26 07:07:24;;;;;;;2.90;1.75;;;10.50;99.90;;;;;;5081654;28;20130;-59
2021/10/26 07:09:51;;;;;;;4.10;2.25;;;10.50;99.90;;;;;;5084543;28;20083;-60
2021/10/26 07:12:18;;;;;;;3.30;1.77;;;10.50;99.90;;;;;;5085533;28;20160;-59
2021/10/26 07:14:45;;;;;;;3.25;2.35;;;10.50;99.90;;;;;;5083324;28;20052;-58
2021/10/26 07:17:12;;;;;;;3.80;1.77;;;10.60;99.90;;;;;;5086184;28;20083;-59
2021/10/26 07:19:38;;;;;;;4.47;2.28;;;10.60;99.90;;;;;;5086409;28;20446;-59
2021/10/26 07:22:05;;;;;;;6.45;2.13;;;10.60;99.90;;;;;;5086454;28;20226;-59
2021/10/26 07:24:32;;;;;;;8.52;3.60;;;10.60;99.90;;;;;;5085125;28;20072;-58
2021/10/26 07:26:59;;;;;;;3.88;2.65;;;10.70;99.90;;;;;;5083333;28;20139;-58
2021/10/26 07:29:26;;;;;;;2.85;2.13;;;10.70;99.90;;;;;;5083049;28;20142;-58
2021/10/26 07:31:54;;;;;;;6.78;2.72;;;10.80;99.90;;;;;;5082266;28;20047;-58
2021/10/26 07:34:22;;;;;;;4.60;2.05;;;10.80;99.90;;;;;;5081301;28;20593;-58
2021/10/26 07:36:51;;;;;;;7.07;2.60;;;10.80;99.90;;;;;;5082995;28;20471;-58
2021/10/26 07:41:56;;;;;;;4.97;1.73;;;10.90;99.90;;;;;;5083017;28;20044;-58
2021/10/26 07:44:22;;;;;;;5.32;1.83;;;10.90;99.90;;;;;;5080198;28;20051;-59
2021/10/26 07:46:49;;;;;;;4.72;2.28;;;10.90;99.90;;;;;;5082672;28;20048;-59
2021/10/26 07:49:16;;;;;;;5.28;1.63;;;11.00;99.90;;;;;;5083750;28;20075;-59
2021/10/26 07:51:43;;;;;;;2.90;1.27;;;11.00;99.90;;;;;;5084249;28;20086;-59
2021/10/26 07:54:10;;;;;;;7.13;1.67;;;11.10;99.90;;;;;;5082470;28;20442;-59
2021/10/26 07:56:37;;;;;;;4.15;2.58;;;11.10;99.90;;;;;;5058056;28;20506;-59
2021/10/26 07:59:05;;;;;;;3.80;1.55;;;11.20;99.90;;;;;;5082654;28;20078;-59
2021/10/26 08:01:32;;;;;;;6.97;3.17;;;11.30;99.90;;;;;;5084319;28;20113;-59
2021/10/26 08:03:59;;;;;;;7.35;2.53;;;11.40;99.90;;;;;;5082023;28;20594;-59
2021/10/26 08:06:25;;;;;;;4.60;2.03;;;11.50;99.90;;;;;;5083224;28;20051;-58
2021/10/26 08:08:52;;;;;;;7.13;2.28;;;11.50;99.90;;;;;;5082988;28;20450;-59
2021/10/26 08:11:19;;;;;;;5.97;1.58;;;11.60;99.90;;;;;;5083059;28;20131;-59
2021/10/26 08:13:46;;;;;;;7.10;1.58;;;11.70;99.90;;;;;;5076098;28;20047;-59
2021/10/26 08:16:14;;;;;;;4.28;1.70;;;11.80;99.90;;;;;;5083048;28;20127;-59
2021/10/26 08:18:42;;;;;;;5.35;1.38;;;11.90;99.90;;;;;;5082023;28;20200;-59
2021/10/26 08:21:10;;;;;;;6.18;1.55;;;11.80;99.90;;;;;;5083543;28;20080;-59
2021/10/26 08:23:37;;;;;;;3.13;1.75;;;11.90;99.90;;;;;;5080835;28;20516;-59
2021/10/26 08:26:07;;;;;;;3.10;1.55;;;11.90;99.90;;;;;;5077546;28;20301;-59
2021/10/26 08:28:34;;;;;;;5.90;1.90;;;12.00;99.90;;;;;;5077016;28;20080;-59
2021/10/26 08:31:14;;;;;;;4.40;1.88;;;12.00;99.90;;;;;;5074902;28;20155;-59
2021/10/26 08:34:03;;;;;;;6.85;1.95;;;12.10;99.90;;;;;;5074908;28;20451;-59
2021/10/26 08:36:28;;;;;;;9.63;2.85;;;12.10;99.90;;;;;;5076260;28;20052;-59
2021/10/26 08:38:55;;;;;;;7.93;2.78;;;12.20;99.90;;;;;;5076685;28;20131;-59
2021/10/26 08:41:23;;;;;;;4.53;3.13;;;12.20;99.90;;;;;;5078005;28;20084;-59
2021/10/26 08:43:51;;;;;;;5.78;2.72;;;12.30;99.90;;;;;;5074852;28;20385;-59
2021/10/26 08:46:18;;;;;;;5.43;2.47;;;12.30;99.80;;;;;;5077743;28;20219;-59
2021/10/26 08:48:50;;;;;;;3.50;2.40;;;12.40;99.80;;;;;;5076359;28;20410;-60
2021/10/26 08:51:17;;;;;;;4.78;2.38;;;12.50;99.90;;;;;;5077022;28;20074;-59
2021/10/26 08:53:45;;;;;;;4.30;2.00;;;12.60;99.40;;;;;;5076535;28;20068;-59
2021/10/26 08:56:12;;;;;;;6.97;2.20;;;12.60;99.50;;;;;;5075516;28;20068;-59
2021/10/26 08:58:39;;;;;;;3.67;1.75;;;12.80;99.00;;;;;;5077053;28;20079;-59
2021/10/26 09:01:11;;;;;;;4.20;1.92;;;12.80;99.00;;;;;;5074713;28;20640;-59
2021/10/26 09:03:39;;;;;;;4.05;1.67;;;12.90;99.10;;;;;;5076509;28;20476;-58
2021/10/26 09:06:10;;;;;;;6.40;2.42;;;12.90;99.00;;;;;;5076441;28;20139;-58
2021/10/26 09:08:39;;;;;;;3.55;1.80;;;13.00;98.10;;;;;;5073839;28;20078;-58
2021/10/26 09:11:22;;;;;;;3.63;1.85;;;13.10;98.60;;;;;;5077248;28;20048;-58
2021/10/26 09:16:46;;;;;;;4.43;1.70;;;13.30;98.30;;;;;;5074469;28;20169;-58
2021/10/26 09:19:16;;;;;;;7.97;1.58;;;13.40;98.00;;;;;;5074033;28;20054;-59
2021/10/26 09:21:45;;;;;;;5.40;1.90;;;13.40;98.10;;;;;;5078322;28;20048;-58
2021/10/26 09:24:13;;;;;;;5.07;1.52;;;13.50;98.40;;;;;;5075140;28;20122;-59
2021/10/26 09:26:53;;;;;;;5.97;1.80;;;13.60;98.20;;;;;;5080478;28;20138;-58
2021/10/26 09:29:28;;;;;;;6.38;1.30;;;13.60;97.50;;;;;;5078216;28;20127;-58
2021/10/26 09:32:08;;;;;;;4.75;1.10;;;13.60;98.40;;;;;;5078392;28;20131;-59
2021/10/26 09:34:45;;;;;;;8.48;1.92;;;13.60;98.20;;;;;;5080150;28;20055;-58
2021/10/26 09:37:13;;;;;;;7.18;1.73;;;13.60;98.40;;;;;;5078673;28;20075;-58
2021/10/26 09:39:52;;;;;;;6.10;1.35;;;13.60;98.20;;;;;;5081003;28;20078;-58
2021/10/26 09:42:20;;;;;;;3.92;1.70;;;13.70;97.80;;;;;;5079877;28;20047;-59
2021/10/26 09:44:52;;;;;;;11.98;2.30;;;13.70;98.10;;;;;;5078930;28;20063;-58
2021/10/26 09:47:30;;;;;;;7.43;2.15;;;13.80;98.60;;;;;;5079552;28;20651;-59
2021/10/26 09:49:59;;;;;;;6.95;1.95;;;14.00;98.50;;;;;;5079840;28;20464;-59
2021/10/26 09:52:32;;;;;;;14.98;2.50;;;14.10;97.80;;;;;;5080978;28;20040;-59
2021/10/26 09:55:16;;;;;;;11.77;2.17;;;14.20;98.50;;;;;;5078735;28;20171;-59
2021/10/26 09:57:57;;;;;;;7.88;1.73;;;14.40;98.40;;;;;;5078796;28;20157;-59
2021/10/26 10:00:26;;;;;;;6.18;1.88;;;14.50;97.90;;;;;;5077861;28;20048;-59
2021/10/26 10:03:11;;;;;;;7.43;2.13;;;14.60;97.80;;;;;;5078179;28;20965;-59
2021/10/26 10:05:57;;;;;;;13.18;2.10;;;14.60;97.30;;;;;;5079066;28;20047;-59
2021/10/26 10:08:27;;;;;;;7.93;2.28;;;14.70;97.20;;;;;;5077733;28;20179;-58
2021/10/26 10:11:17;;;;;;;11.75;2.28;;;14.70;97.60;;;;;;5079076;28;20044;-59
2021/10/26 10:13:45;;;;;;;9.48;2.42;;;14.80;97.00;;;;;;5076240;28;20425;-59
2021/10/26 10:16:13;;;;;;;6.68;1.90;;;14.80;97.50;;;;;;5078171;28;20052;-59
2021/10/26 10:18:46;;;;;;;7.45;2.00;;;14.80;97.60;;;;;;5079586;28;20047;-58
2021/10/26 10:21:16;;;;;;;9.93;2.05;;;14.90;97.50;;;;;;5076716;28;20459;-59
2021/10/26 10:23:43;;;;;;;9.18;2.55;;;14.90;97.60;;;;;;5077556;28;20121;-59
2021/10/26 10:26:16;;;;;;;6.90;1.40;;;15.00;97.10;;;;;;5081310;28;20123;-59
2021/10/26 10:28:49;;;;;;;;;;;15.10;97.10;;;;;;5079595;28;20486;-59
2021/10/26 10:31:19;;;;;;;7.05;1.67;;;15.20;97.10;;;;;;5079489;28;20414;-58
2021/10/26 10:33:48;;;;;;;15.57;2.90;;;15.20;96.70;;;;;;5079018;28;20071;-59
2021/10/26 10:36:16;;;;;;;12.07;3.25;;;15.30;96.80;;;;;;5078132;28;20155;-59
2021/10/26 10:38:43;;;;;;;8.00;2.05;;;15.30;96.80;;;;;;5077905;28;20163;-59
2021/10/26 10:41:19;;;;;;;10.77;2.13;;;15.50;97.00;;;;;;5077559;28;20384;-59
2021/10/26 10:43:46;;;;;;;7.43;1.98;;;15.70;96.30;;;;;;5078865;28;20182;-59
2021/10/26 10:46:39;;;;;;;9.65;2.08;;;15.80;96.40;;;;;;5077787;28;20559;-59
2021/10/26 10:49:26;;;;;;;8.90;2.00;;;15.90;95.60;;;;;;5079026;28;20456;-59
2021/10/26 10:51:56;;;;;;;9.55;2.50;;;16.00;95.90;;;;;;5079083;28;20092;-59
2021/10/26 10:54:48;;;;;;;7.28;1.77;;;16.00;95.20;;;;;;5078497;28;20478;-58
2021/10/26 10:57:24;;;;;;;8.48;2.10;;;16.00;95.70;;;;;;5077024;28;20143;-58
2021/10/26 10:59:51;;;;;;;14.20;2.63;;;15.90;96.10;;;;;;5078753;28;20040;-58
2021/10/26 11:02:33;;;;;;;12.65;3.15;;;16.00;96.40;;;;;;5076577;28;20075;-58
2021/10/26 11:05:00;;;;;;;10.20;2.53;;;16.00;95.90;;;;;;5079194;28;20560;-58
2021/10/26 11:07:42;;;;;;;11.63;2.78;;;16.20;95.70;;;;;;5080248;28;20085;-58
2021/10/26 11:10:13;;;;;;;13.75;2.83;;;16.20;95.40;;;;;;5078375;28;20411;-59
2021/10/26 11:12:42;;;;;;;9.77;2.30;;;16.20;95.80;;;;;;5077485;28;20123;-59
2021/10/26 11:15:11;;;;;;;12.68;2.55;;;16.30;96.10;;;;;;5078669;28;20305;-59
2021/10/26 11:17:42;;;;;;;11.05;2.45;;;16.30;95.90;;;;;;5079150;28;20186;-59
2021/10/26 11:20:11;;;;;;;7.97;2.50;;;16.40;95.90;;;;;;5077279;28;20135;-59
2021/10/26 11:22:50;;;;;;;7.68;2.10;;;16.30;95.50;;;;;;5079220;28;20493;-59
2021/10/26 11:25:36;;;;;;;7.32;2.65;;;16.30;95.70;;;;;;5078549;28;20495;-59
2021/10/26 11:28:18;;;;;;;12.23;2.58;;;16.20;95.70;;;;;;5073690;28;20525;-59
2021/10/26 11:30:45;;;;;;;15.27;2.92;;;16.30;95.20;;;;;;5078719;28;20258;-59
2021/10/26 11:33:17;;;;;;;9.02;2.70;;;16.30;95.80;;;;;;5077827;28;20055;-59
2021/10/26 11:35:58;;;;;;;7.93;2.72;;;16.50;96.10;;;;;;5068753;28;20097;-58
2021/10/26 11:38:30;;;;;;;8.88;2.55;;;16.80;95.60;;;;;;5077004;28;20054;-59
2021/10/26 11:41:06;;;;;;;11.52;2.47;;;17.00;94.60;;;;;;5035529;28;20396;-58
2021/10/26 11:43:59;;;;;;;6.72;2.00;;;17.10;94.60;;;;;;5076476;28;20777;-58
2021/10/26 11:46:31;;;;;;;7.65;1.85;;;17.10;94.30;;;;;;5076096;28;20460;-58
2021/10/26 11:49:06;;;;;;;8.23;2.22;;;17.10;94.20;;;;;;5076112;28;20308;-58
2021/10/26 11:51:38;;;;;;;9.38;2.65;;;17.20;94.30;;;;;;5067130;28;20480;-59
2021/10/26 11:54:05;;;;;;;10.50;3.40;;;17.20;94.40;;;;;;5078621;28;20052;-59
2021/10/26 11:56:39;;;;;;;8.80;2.60;;;17.30;94.60;;;;;;5079340;28;20101;-59
2021/10/26 11:59:13;;;;;;;7.78;1.90;;;17.40;94.30;;;;;;5078209;28;20083;-58
2021/10/26 12:01:57;;;;;;;8.45;2.33;;;17.70;94.00;;;;;;5076973;28;20071;-58
2021/10/26 12:04:30;;;;;;;10.10;2.53;;;18.00;92.90;;;;;;5074872;28;20105;-59
2021/10/26 12:07:09;;;;;;;7.97;2.80;;;18.20;93.70;;;;;;5079422;28;20063;-59
2021/10/26 12:09:39;;;;;;;8.50;2.42;;;18.30;92.20;;;;;;5077248;28;20491;-59
2021/10/26 12:12:10;;;;;;;6.88;2.42;;;18.40;93.20;;;;;;5071032;28;20101;-59
2021/10/26 12:14:38;;;;;;;7.90;2.55;;;18.30;92.60;;;;;;5076890;28;20232;-59
2021/10/26 12:17:06;;;;;;;14.48;3.30;;;18.10;92.40;;;;;;5075469;28;20156;-58
2021/10/26 12:19:49;;;;;;;10.35;2.22;;;18.10;92.90;;;;;;5077525;28;20176;-59
2021/10/26 12:22:42;;;;;;;9.55;2.17;;;18.20;92.30;;;;;;5076007;28;20616;-59
2021/10/26 12:27:43;;;;;;;12.50;2.35;;;19.00;92.60;;;;;;5078084;28;20144;-59
2021/10/26 12:30:17;;;;;;;9.70;2.35;;;19.10;91.70;;;;;;5058779;28;20130;-59
2021/10/26 12:32:53;;;;;;;5.20;2.17;;;19.20;91.40;;;;;;5076911;28;20134;-59
2021/10/26 12:35:31;;;;;;;12.23;2.67;;;19.40;90.60;;;;;;5074789;28;20098;-59
2021/10/26 12:38:08;;;;;;;11.10;2.20;;;19.50;90.10;;;;;;5077089;28;20055;-59
2021/10/26 12:40:43;;;;;;;8.25;2.42;;;19.70;90.20;;;;;;5077713;28;20132;-58
2021/10/26 12:43:10;;;;;;;12.50;2.83;;;20.00;89.90;;;;;;5077444;28;20087;-58
2021/10/26 12:45:38;;;;;;;6.93;2.25;;;20.10;89.20;;;;;;5076616;28;20465;-59
2021/10/26 12:48:07;;;;;;;7.18;2.00;;;20.20;89.30;;;;;;5074568;28;20128;-59
2021/10/26 12:51:03;;;;;;;9.70;2.47;;;20.20;89.60;;;;;;5079269;28;20082;-59
2021/10/26 12:53:38;;;;;;;5.63;2.00;;;20.10;86.80;;;;;;5074275;28;20488;-59
2021/10/26 12:56:31;;;;;;;7.65;2.75;;;19.90;87.60;;;;;;5080276;28;20527;-59
2021/10/26 12:59:07;;;;;;;12.60;2.40;;;20.10;87.10;;;;;;5080535;28;20763;-59
2021/10/26 13:01:40;;;;;;;8.65;2.28;;;20.30;88.10;;;;;;5084651;28;20128;-59
2021/10/26 13:04:19;;;;;;;9.68;2.30;;;20.30;88.00;;;;;;5083666;28;20192;-59
2021/10/26 13:06:46;;;;;;;9.23;2.83;;;20.00;87.30;;;;;;5084229;28;20048;-59
2021/10/26 13:09:38;;;;;;;8.93;1.83;;;19.80;88.90;;;;;;5083479;28;20078;-59